createdAt,value
2023-02-24T00:02:01.148Z,66.90
2023-02-24T00:04:35.150Z,67.12
2023-02-24T00:07:03.004Z,66.88
2023-02-24T00:09:33.501Z,66.94
2023-02-24T00:12:10.414Z,67.19
2023-02-24T00:14:41.823Z,67.37
2023-02-24T00:17:10.816Z,67.48
2023-02-24T00:19:38.586Z,67.15
2023-02-24T00:22:08.683Z,67.50
2023-02-24T00:24:36.969Z,67.59
2023-02-24T00:27:12.389Z,67.74
2023-02-24T00:29:42.023Z,67.72
2023-02-24T00:32:13.361Z,67.71
2023-02-24T00:34:41.384Z,68.08
2023-02-24T00:37:09.326Z,67.93
2023-02-24T00:39:42.001Z,67.98
2023-02-24T00:42:09.536Z,68.73
2023-02-24T00:44:41.032Z,68.71
2023-02-24T00:47:10.578Z,68.53
2023-02-24T00:49:42.476Z,68.46
2023-02-24T00:52:17.250Z,68.64
2023-02-24T00:54:47.532Z,68.97
2023-02-24T00:57:18.464Z,69.11
2023-02-24T00:59:48.269Z,68.94
2023-02-24T01:02:16.500Z,69.50
2023-02-24T01:04:45.099Z,69.54
2023-02-24T01:07:13.056Z,70.06
2023-02-24T01:09:42.113Z,69.80
2023-02-24T01:12:38.644Z,70.06
2023-02-24T01:15:10.126Z,69.11
2023-02-24T01:17:38.176Z,69.78
2023-02-24T01:20:18.381Z,69.34
2023-02-24T01:22:53.424Z,69.10
2023-02-24T01:25:20.793Z,69.65
2023-02-24T01:27:48.591Z,69.61
2023-02-24T01:30:16.357Z,69.58
2023-02-24T01:32:44.543Z,69.41
2023-02-24T01:35:12.276Z,69.74
2023-02-24T01:37:39.825Z,69.91
2023-02-24T01:40:20.835Z,69.29
2023-02-24T01:42:49.468Z,69.34
2023-02-24T01:45:22.761Z,69.17
2023-02-24T01:47:54.084Z,69.20
2023-02-24T01:50:26.323Z,69.26
2023-02-24T01:53:02.597Z,69.03
2023-02-24T01:55:47.221Z,69.52
2023-02-24T01:58:24.129Z,69.63
2023-02-24T02:00:52.293Z,69.70
2023-02-24T02:03:36.510Z,69.37
2023-02-24T02:06:12.050Z,68.95
2023-02-24T02:08:43.131Z,69.00
2023-02-24T02:11:21.415Z,68.83
2023-02-24T02:13:52.901Z,68.11
2023-02-24T02:16:38.218Z,68.64
2023-02-24T02:19:44.883Z,68.57
2023-02-24T02:23:07.629Z,67.84
2023-02-24T02:26:24.768Z,67.62
2023-02-24T02:29:22.146Z,67.50
2023-02-24T02:32:40.261Z,67.67
2023-02-24T02:35:23.808Z,67.84
2023-02-24T02:38:05.061Z,67.66
2023-02-24T02:40:45.818Z,67.35
2023-02-24T02:43:31.078Z,67.77
2023-02-24T02:46:03.979Z,67.52
2023-02-24T02:48:41.410Z,67.62
2023-02-24T02:51:18.958Z,67.91
2023-02-24T02:54:11.321Z,67.87
2023-02-24T02:56:47.217Z,68.19
2023-02-24T02:59:22.705Z,68.21
2023-02-24T03:02:01.250Z,67.37
2023-02-24T03:04:30.391Z,67.80
2023-02-24T03:07:03.462Z,68.03
2023-02-24T03:09:39.994Z,67.85
2023-02-24T03:12:14.762Z,67.88
2023-02-24T03:14:51.233Z,67.60
2023-02-24T03:17:24.999Z,67.35
2023-02-24T03:20:15.130Z,67.83
2023-02-24T03:22:51.756Z,67.66
2023-02-24T03:25:35.004Z,67.66
2023-02-24T03:28:29.203Z,67.85
2023-02-24T03:31:11.122Z,68.38
2023-02-24T03:33:46.820Z,68.51
2023-02-24T03:36:15.181Z,68.33
2023-02-24T03:38:43.985Z,68.02
2023-02-24T03:41:11.484Z,68.06
2023-02-24T03:43:46.870Z,68.26
2023-02-24T03:46:17.171Z,67.91
2023-02-24T03:48:53.112Z,67.65
2023-02-24T03:51:23.483Z,68.13
2023-02-24T03:54:06.542Z,68.24
2023-02-24T03:56:40.590Z,67.89
2023-02-24T03:59:46.940Z,68.20
2023-02-24T04:02:30.498Z,68.17
2023-02-24T04:05:24.111Z,67.72
2023-02-24T04:08:04.318Z,67.68
2023-02-24T04:11:10.400Z,67.78
2023-02-24T04:13:51.995Z,67.94
2023-02-24T04:16:36.681Z,67.98
2023-02-24T04:19:14.122Z,68.39
2023-02-24T04:21:48.472Z,68.26
2023-02-24T04:24:21.487Z,67.78
2023-02-24T04:26:51.385Z,67.93
2023-02-24T04:29:23.898Z,67.99
2023-02-24T04:32:03.944Z,68.15
2023-02-24T04:34:32.680Z,68.48
2023-02-24T04:37:02.381Z,68.58
2023-02-24T04:39:32.057Z,68.05
2023-02-24T04:42:01.756Z,68.35
2023-02-24T04:44:29.221Z,68.43
2023-02-24T04:46:56.665Z,68.44
2023-02-24T04:49:23.889Z,68.89
2023-02-24T04:51:51.727Z,68.65
2023-02-24T04:54:21.191Z,68.37
2023-02-24T04:56:54.103Z,68.62
2023-02-24T04:59:23.250Z,68.74
2023-02-24T05:01:55.040Z,68.25
2023-02-24T05:04:22.420Z,68.81
2023-02-24T05:06:49.444Z,68.65
2023-02-24T05:09:18.266Z,68.13
2023-02-24T05:11:50.708Z,68.51
2023-02-24T05:14:24.812Z,68.58
2023-02-24T05:16:51.836Z,68.56
2023-02-24T05:19:38.901Z,68.44
2023-02-24T05:22:07.261Z,68.62
2023-02-24T05:24:34.992Z,68.29
2023-02-24T05:27:03.951Z,68.06
2023-02-24T05:29:34.780Z,68.29
2023-02-24T05:32:04.114Z,68.81
2023-02-24T05:34:33.610Z,68.61
2023-02-24T05:37:10.206Z,68.72
2023-02-24T05:39:37.986Z,68.71
2023-02-24T05:42:06.866Z,68.50
2023-02-24T05:44:35.985Z,68.57
2023-02-24T05:47:05.517Z,68.36
2023-02-24T05:49:35.548Z,68.42
2023-02-24T05:52:09.211Z,68.73
2023-02-24T05:54:45.357Z,68.51
2023-02-24T05:57:19.502Z,68.55
2023-02-24T05:59:53.349Z,68.48
2023-02-24T06:02:27.875Z,69.13
2023-02-24T06:04:55.733Z,68.75
2023-02-24T06:07:34.576Z,68.86
2023-02-24T06:10:04.906Z,68.42
2023-02-24T06:12:34.754Z,68.75
2023-02-24T06:15:07.642Z,68.53
2023-02-24T06:17:35.353Z,69.01
2023-02-24T06:20:12.977Z,68.99
2023-02-24T06:22:42.489Z,68.40
2023-02-24T06:25:14.271Z,68.73
2023-02-24T06:27:43.220Z,69.00
2023-02-24T06:30:11.522Z,68.97
2023-02-24T06:32:38.702Z,68.53
2023-02-24T06:35:06.235Z,68.35
2023-02-24T06:37:33.360Z,68.34
2023-02-24T06:40:01.651Z,68.61
2023-02-24T06:42:28.861Z,68.64
2023-02-24T06:44:56.277Z,68.76
2023-02-24T06:47:23.235Z,68.54
2023-02-24T06:49:50.470Z,68.60
2023-02-24T06:52:19.216Z,68.64
2023-02-24T06:54:52.564Z,68.51
2023-02-24T06:57:20.842Z,68.33
2023-02-24T06:59:49.155Z,68.70
2023-02-24T07:02:17.676Z,68.35
2023-02-24T07:04:45.116Z,68.30
2023-02-24T07:07:14.585Z,68.88
2023-02-24T07:09:42.719Z,68.37
2023-02-24T07:12:12.742Z,68.15
2023-02-24T07:14:40.680Z,68.48
2023-02-24T07:17:08.475Z,68.66
2023-02-24T07:19:36.785Z,68.34
2023-02-24T07:22:04.528Z,68.57
2023-02-24T07:24:39.319Z,68.28
2023-02-24T07:27:27.704Z,68.36
2023-02-24T07:29:55.031Z,68.30
2023-02-24T07:32:23.157Z,68.39
2023-02-24T07:34:50.434Z,68.24
2023-02-24T07:37:19.674Z,68.43
2023-02-24T07:39:47.475Z,68.23
2023-02-24T07:42:14.564Z,67.77
2023-02-24T07:44:44.598Z,67.87
2023-02-24T07:47:11.813Z,67.76
2023-02-24T07:49:41.031Z,67.52
2023-02-24T07:52:09.090Z,67.55
2023-02-24T07:54:39.261Z,67.27
2023-02-24T07:57:13.884Z,67.27
2023-02-24T07:59:47.227Z,67.74
2023-02-24T08:02:15.615Z,67.81
2023-02-24T08:04:50.064Z,67.56
2023-02-24T08:07:30.829Z,67.80
2023-02-24T08:10:13.851Z,66.93
2023-02-24T08:12:42.942Z,67.08
2023-02-24T08:15:18.258Z,66.98
2023-02-24T08:17:47.497Z,66.43
2023-02-24T08:20:16.305Z,65.68
2023-02-24T08:22:52.293Z,65.60
2023-02-24T08:25:36.189Z,65.49
2023-02-24T08:28:11.553Z,65.61
2023-02-24T08:30:45.817Z,65.14
2023-02-24T08:33:20.726Z,64.76
2023-02-24T08:36:01.631Z,64.56
2023-02-24T08:38:44.919Z,64.65
2023-02-24T08:41:21.380Z,64.46
2023-02-24T08:43:49.896Z,64.31
2023-02-24T08:46:26.504Z,63.78
2023-02-24T08:49:00.785Z,63.47
2023-02-24T08:51:35.180Z,63.47
2023-02-24T08:54:16.849Z,63.01
2023-02-24T08:56:56.009Z,62.97
2023-02-24T08:59:38.573Z,62.46
2023-02-24T09:02:29.420Z,62.59
2023-02-24T09:05:13.201Z,62.09
2023-02-24T09:07:42.367Z,61.24
2023-02-24T09:10:19.064Z,61.19
2023-02-24T09:12:49.255Z,60.08
2023-02-24T09:15:16.582Z,60.26
2023-02-24T09:17:45.248Z,59.63
2023-02-24T09:20:25.703Z,59.15
2023-02-24T09:23:07.395Z,59.50
2023-02-24T09:25:49.546Z,58.60
2023-02-24T09:28:24.703Z,58.22
2023-02-24T09:31:04.949Z,57.80
2023-02-24T09:33:39.070Z,57.30
2023-02-24T09:36:10.239Z,57.39
2023-02-24T09:39:01.217Z,57.22
2023-02-24T09:41:56.737Z,56.41
2023-02-24T09:44:44.385Z,56.24
2023-02-24T09:47:31.101Z,56.05
2023-02-24T09:50:40.284Z,55.58
2023-02-24T09:53:14.177Z,56.11
2023-02-24T09:56:05.562Z,56.18
2023-02-24T09:59:01.153Z,55.67
2023-02-24T10:01:50.379Z,55.89
2023-02-24T10:05:07.230Z,56.03
2023-02-24T10:07:43.942Z,55.42
2023-02-24T10:10:36.796Z,54.19
2023-02-24T10:13:32.783Z,52.72
2023-02-24T10:16:08.520Z,53.36
2023-02-24T10:19:01.439Z,52.80
2023-02-24T10:22:01.603Z,52.65
2023-02-24T10:25:01.433Z,51.74
2023-02-24T10:27:42.421Z,51.52
2023-02-24T10:30:21.094Z,50.19
2023-02-24T10:33:02.329Z,49.55
2023-02-24T10:35:36.790Z,49.54
2023-02-24T10:38:05.454Z,49.89
2023-02-24T10:40:46.936Z,49.24
2023-02-24T10:43:20.801Z,48.87
2023-02-24T10:45:48.346Z,48.18
2023-02-24T10:48:41.506Z,48.08
2023-02-24T10:51:21.489Z,48.49
2023-02-24T10:54:09.935Z,47.27
2023-02-24T10:56:55.546Z,44.82
2023-02-24T10:59:25.444Z,44.44
2023-02-24T11:02:29.886Z,44.29
2023-02-24T11:05:25.018Z,44.60
2023-02-24T11:08:36.635Z,45.11
2023-02-24T11:11:30.738Z,45.05
2023-02-24T11:14:20.391Z,45.92
2023-02-24T11:17:12.683Z,45.44
2023-02-24T11:20:22.326Z,45.01
2023-02-24T11:22:55.779Z,45.58
2023-02-24T11:25:46.018Z,45.65
2023-02-24T11:28:48.987Z,45.37
2023-02-24T11:32:00.321Z,45.92
2023-02-24T11:34:58.333Z,45.91
2023-02-24T11:38:09.731Z,44.63
2023-02-24T11:40:46.440Z,44.89
2023-02-24T11:43:24.251Z,45.29
2023-02-24T11:46:00.727Z,44.97
2023-02-24T11:48:58.198Z,45.20
2023-02-24T11:51:31.967Z,43.77
2023-02-24T11:54:16.124Z,44.46
2023-02-24T11:56:50.255Z,44.06
2023-02-24T11:59:47.044Z,44.56
2023-02-24T12:02:47.185Z,44.60
2023-02-24T12:05:36.877Z,44.86
2023-02-24T12:08:24.298Z,45.01
2023-02-24T12:11:01.679Z,44.62
2023-02-24T12:13:42.345Z,44.94
2023-02-24T12:16:33.783Z,44.90
2023-02-24T12:19:51.814Z,44.53
2023-02-24T12:22:19.176Z,44.36
2023-02-24T12:24:52.061Z,45.32
2023-02-24T12:27:46.657Z,46.02
2023-02-24T12:30:38.252Z,47.13
2023-02-24T12:33:21.310Z,47.45
2023-02-24T12:36:03.100Z,47.42
2023-02-24T12:38:55.752Z,47.96
2023-02-24T12:41:43.284Z,47.73
2023-02-24T12:44:41.742Z,48.22
2023-02-24T12:47:21.465Z,48.32
2023-02-24T12:49:57.296Z,48.09
2023-02-24T12:53:04.802Z,47.69
2023-02-24T12:55:47.949Z,47.17
2023-02-24T12:58:45.788Z,46.68
2023-02-24T13:01:23.470Z,46.44
2023-02-24T13:04:35.485Z,46.82
2023-02-24T13:07:47.812Z,45.90
2023-02-24T13:10:35.081Z,45.68
2023-02-24T13:13:17.684Z,45.78
2023-02-24T13:15:58.774Z,47.82
2023-02-24T13:18:39.625Z,48.42
2023-02-24T13:21:09.250Z,48.78
2023-02-24T13:23:42.945Z,48.19
2023-02-24T13:26:10.659Z,47.63
2023-02-24T13:28:38.648Z,47.51
2023-02-24T13:31:12.735Z,47.08
2023-02-24T13:33:44.957Z,47.46
2023-02-24T13:36:22.773Z,47.08
2023-02-24T13:39:06.854Z,47.35
2023-02-24T13:41:40.857Z,47.05
2023-02-24T13:44:29.405Z,46.66
2023-02-24T13:47:38.745Z,46.61
2023-02-24T13:50:25.456Z,45.63
2023-02-24T13:53:33.944Z,44.66
2023-02-24T13:56:49.431Z,44.02
2023-02-24T13:59:57.742Z,43.29
2023-02-24T14:02:31.032Z,43.24
2023-02-24T14:05:08.448Z,43.45
2023-02-24T14:07:39.538Z,43.10
2023-02-24T14:10:20.449Z,42.45
2023-02-24T14:12:50.483Z,42.56
2023-02-24T14:15:25.728Z,42.42
2023-02-24T14:18:03.978Z,42.46
2023-02-24T14:20:38.051Z,42.21
2023-02-24T14:23:29.853Z,42.74
2023-02-24T14:26:06.504Z,42.60
2023-02-24T14:28:38.540Z,42.52
2023-02-24T14:31:16.929Z,43.42
2023-02-24T14:33:45.908Z,43.76
2023-02-24T14:36:26.321Z,43.65
2023-02-24T14:39:04.633Z,43.60
2023-02-24T14:41:31.733Z,43.31
2023-02-24T14:44:25.815Z,43.48
2023-02-24T14:46:59.248Z,42.84
2023-02-24T14:49:33.839Z,42.40
2023-02-24T14:52:22.336Z,42.79
2023-02-24T14:55:10.858Z,42.71
2023-02-24T14:57:49.819Z,42.71
2023-02-24T15:00:22.105Z,42.78
2023-02-24T15:03:02.994Z,43.28
2023-02-24T15:05:30.765Z,43.55
2023-02-24T15:07:58.707Z,43.59
2023-02-24T15:10:30.497Z,43.86
2023-02-24T15:13:27.631Z,44.01
2023-02-24T15:15:57.048Z,43.72
2023-02-24T15:18:29.115Z,43.72
2023-02-24T15:21:04.005Z,44.18
2023-02-24T15:23:35.428Z,44.36
2023-02-24T15:26:08.688Z,44.95
2023-02-24T15:28:37.615Z,44.75
2023-02-24T15:31:18.118Z,44.89
2023-02-24T15:33:58.011Z,45.39
2023-02-24T15:36:34.954Z,45.38
2023-02-24T15:39:07.955Z,45.73
2023-02-24T15:41:46.750Z,45.93
2023-02-24T15:44:33.161Z,46.02
2023-02-24T15:47:22.796Z,46.18
2023-02-24T15:49:49.932Z,46.53
2023-02-24T15:52:24.385Z,46.14
2023-02-24T15:54:52.893Z,46.43
2023-02-24T15:58:17.989Z,47.05
2023-02-24T16:00:45.688Z,47.49
2023-02-24T16:03:13.079Z,48.26
2023-02-24T16:05:40.744Z,48.63
2023-02-24T16:08:16.640Z,48.31
2023-02-24T16:10:43.849Z,48.62
2023-02-24T16:13:30.434Z,48.22
2023-02-24T16:15:57.597Z,48.42
2023-02-24T16:18:26.016Z,48.18
2023-02-24T16:20:56.981Z,48.40
2023-02-24T16:23:26.752Z,48.38
2023-02-24T16:25:59.862Z,48.23
2023-02-24T16:28:27.953Z,47.78
2023-02-24T16:30:55.019Z,47.91
2023-02-24T16:33:23.715Z,47.92
2023-02-24T16:35:54.964Z,47.90
2023-02-24T16:38:26.564Z,48.25
2023-02-24T16:40:54.789Z,48.12
2023-02-24T16:43:22.082Z,47.92
2023-02-24T16:45:50.255Z,47.79
2023-02-24T16:48:26.469Z,47.86
2023-02-24T16:50:54.019Z,47.80
2023-02-24T16:53:24.460Z,47.54
2023-02-24T16:55:52.021Z,47.90
2023-02-24T16:58:19.819Z,47.92
2023-02-24T17:00:50.370Z,47.59
2023-02-24T17:03:31.215Z,47.77
2023-02-24T17:05:58.255Z,47.72
2023-02-24T17:08:25.718Z,47.58
2023-02-24T17:10:54.508Z,47.43
2023-02-24T17:13:22.175Z,47.43
2023-02-24T17:15:55.345Z,47.24
2023-02-24T17:18:25.118Z,47.09
2023-02-24T17:20:53.681Z,47.35
2023-02-24T17:23:21.809Z,47.09
2023-02-24T17:25:54.377Z,47.02
2023-02-24T17:28:22.286Z,47.09
2023-02-24T17:30:49.448Z,46.88
2023-02-24T17:33:16.902Z,47.12
2023-02-24T17:35:47.094Z,47.50
2023-02-24T17:38:16.960Z,47.29
2023-02-24T17:40:45.709Z,46.92
2023-02-24T17:43:13.303Z,46.21
2023-02-24T17:45:46.688Z,45.84
2023-02-24T17:48:16.082Z,46.04
2023-02-24T17:50:45.949Z,45.70
2023-02-24T17:53:14.584Z,45.75
2023-02-24T17:55:55.815Z,45.85
2023-02-24T17:58:27.158Z,45.35
2023-02-24T18:00:54.240Z,45.55
2023-02-24T18:03:21.485Z,45.48
2023-02-24T18:05:48.718Z,45.55
2023-02-24T18:08:16.038Z,45.81
2023-02-24T18:10:43.055Z,45.66
2023-02-24T18:13:10.388Z,45.62
2023-02-24T18:15:39.324Z,45.63
2023-02-24T18:18:06.659Z,45.57
2023-02-24T18:20:33.928Z,45.10
2023-02-24T18:23:01.187Z,44.84
2023-02-24T18:25:28.324Z,44.77
2023-02-24T18:27:55.822Z,44.41
2023-02-24T18:30:22.815Z,44.99
2023-02-24T18:32:51.911Z,44.94
2023-02-24T18:35:22.403Z,44.59
2023-02-24T18:37:56.458Z,44.44
2023-02-24T18:40:25.609Z,44.62
2023-02-24T18:42:53.248Z,44.42
2023-02-24T18:45:21.946Z,44.69
2023-02-24T18:47:53.284Z,44.69
2023-02-24T18:50:25.009Z,44.66
2023-02-24T18:52:52.382Z,44.72
2023-02-24T18:55:19.954Z,44.89
2023-02-24T18:57:47.891Z,45.05
2023-02-24T19:00:15.652Z,45.09
2023-02-24T19:02:43.068Z,45.50
2023-02-24T19:05:10.839Z,45.00
2023-02-24T19:07:38.191Z,45.73
2023-02-24T19:10:06.336Z,45.46
2023-02-24T19:12:33.654Z,46.22
2023-02-24T19:15:00.754Z,45.62
2023-02-24T19:17:28.068Z,45.71
2023-02-24T19:19:55.126Z,46.01
2023-02-24T19:22:23.146Z,45.74
2023-02-24T19:24:50.663Z,46.06
2023-02-24T19:27:18.603Z,45.66
2023-02-24T19:29:45.905Z,45.35
2023-02-24T19:32:14.186Z,46.21
2023-02-24T19:34:42.927Z,45.82
2023-02-24T19:37:11.626Z,45.65
2023-02-24T19:39:39.158Z,45.13
2023-02-24T19:42:07.001Z,45.34
2023-02-24T19:44:34.962Z,45.50
2023-02-24T19:47:02.710Z,45.50
2023-02-24T19:49:29.983Z,45.50
2023-02-24T19:51:59.360Z,45.78
2023-02-24T19:54:28.218Z,45.77
2023-02-24T19:56:58.031Z,45.50
2023-02-24T19:59:25.549Z,45.26
2023-02-24T20:01:54.432Z,45.95
2023-02-24T20:04:23.939Z,45.78
2023-02-24T20:06:52.102Z,48.17
2023-02-24T20:09:21.996Z,50.24
2023-02-24T20:11:51.769Z,51.72
2023-02-24T20:14:20.314Z,52.69
2023-02-24T20:16:47.893Z,53.37
2023-02-24T20:19:15.866Z,54.48
2023-02-24T20:21:43.893Z,55.15
2023-02-24T20:24:15.001Z,55.00
2023-02-24T20:26:49.728Z,55.67
2023-02-24T20:29:21.008Z,56.30
2023-02-24T20:31:48.877Z,57.22
2023-02-24T20:34:17.035Z,56.70
2023-02-24T20:36:44.815Z,56.37
2023-02-24T20:39:14.543Z,55.60
2023-02-24T20:41:42.058Z,56.13
2023-02-24T20:44:10.657Z,55.73
2023-02-24T20:46:37.994Z,55.14
2023-02-24T20:49:09.407Z,55.17
2023-02-24T20:51:38.433Z,54.88
2023-02-24T20:54:07.665Z,55.17
2023-02-24T20:56:38.019Z,54.66
2023-02-24T20:59:18.902Z,54.31
2023-02-24T21:01:48.491Z,54.10
2023-02-24T21:04:19.841Z,53.88
2023-02-24T21:06:51.435Z,53.56
2023-02-24T21:09:18.580Z,54.32
2023-02-24T21:11:46.023Z,53.88
2023-02-24T21:14:16.274Z,54.07
2023-02-24T21:16:45.726Z,53.92
2023-02-24T21:19:12.822Z,53.53
2023-02-24T21:21:40.253Z,53.82
2023-02-24T21:24:07.957Z,54.20
2023-02-24T21:26:35.322Z,53.80
2023-02-24T21:29:02.288Z,53.52
2023-02-24T21:31:29.630Z,53.32
2023-02-24T21:33:57.308Z,54.19
2023-02-24T21:36:26.695Z,53.93
2023-02-24T21:38:55.254Z,53.79
2023-02-24T21:41:24.061Z,53.72
2023-02-24T21:43:55.557Z,54.05
2023-02-24T21:46:28.225Z,53.64
2023-02-24T21:48:59.769Z,53.97
2023-02-24T21:51:29.267Z,53.86
2023-02-24T21:53:57.842Z,53.98
2023-02-24T21:56:28.790Z,53.56
2023-02-24T21:59:05.914Z,53.80
2023-02-24T22:01:41.227Z,53.49
2023-02-24T22:04:14.311Z,53.63
2023-02-24T22:06:43.740Z,53.72
2023-02-24T22:09:14.429Z,54.14
2023-02-24T22:11:42.264Z,54.31
2023-02-24T22:14:12.377Z,53.97
2023-02-24T22:16:41.081Z,54.24
2023-02-24T22:19:09.540Z,53.82
2023-02-24T22:21:39.349Z,54.51
2023-02-24T22:24:07.229Z,54.30
2023-02-24T22:26:34.509Z,53.96
2023-02-24T22:29:02.390Z,54.50
2023-02-24T22:31:33.997Z,54.38
2023-02-24T22:34:02.326Z,54.99
2023-02-24T22:36:33.975Z,53.99
2023-02-24T22:39:03.176Z,54.41
2023-02-24T22:41:34.074Z,54.04
2023-02-24T22:44:04.034Z,54.26
2023-02-24T22:46:36.812Z,54.29
2023-02-24T22:49:05.385Z,54.31
2023-02-24T22:51:32.839Z,54.42
2023-02-24T22:54:00.036Z,54.02
2023-02-24T22:56:29.207Z,54.55
2023-02-24T22:58:57.794Z,54.14
2023-02-24T23:01:32.373Z,54.43
2023-02-24T23:04:05.705Z,53.98
2023-02-24T23:06:34.801Z,54.15
2023-02-24T23:09:03.781Z,54.06
2023-02-24T23:11:43.394Z,54.59
2023-02-24T23:14:14.453Z,54.18
2023-02-24T23:16:44.673Z,54.16
2023-02-24T23:19:17.027Z,54.19
2023-02-24T23:21:49.846Z,53.96
2023-02-24T23:24:20.249Z,54.08
2023-02-24T23:26:57.978Z,54.17
2023-02-24T23:29:26.703Z,54.55
2023-02-24T23:31:54.387Z,54.78
2023-02-24T23:34:21.668Z,54.53
2023-02-24T23:36:48.998Z,54.34
2023-02-24T23:39:24.011Z,54.35
2023-02-24T23:41:56.955Z,54.03
2023-02-24T23:44:24.493Z,54.53
2023-02-24T23:46:51.741Z,54.16
2023-02-24T23:49:18.829Z,54.28
2023-02-24T23:51:48.838Z,54.45
2023-02-24T23:54:18.422Z,54.48
2023-02-24T23:56:46.478Z,54.51
2023-02-24T23:59:14.024Z,54.93
